Bluff City, KS (67018)

6:44 PM CDT on September 01, 2014 (GMT -0500)
Weed Dept | Change Station
CLOSE
Current Station
Personal Weather Station
Location: Anthony, KS
Elevation: 1352 ft
Nearby Weather Stations

Elev 1352 ft 37.15 °N, 98.06 °W | Updated 13 minutes ago

Partly Cloudy
Partly Cloudy
86.7 °F
Feels Like 94 °F
N
17.1
Wind Variable Wind from NNE

Today
High -- | Low -- °F
--% Chance of Precip.
Yesterday
High -- | Low -- °F
Precip. -- in
7:02 AM 8:00 PM
Waxing Crescent, 45% visible
Pressure 29.73 in
Visibility 6.0 miles
Clouds Few 7000 ft
Scattered Clouds 8500 ft
Heat Index 94 °F
Dew Point 73 °F
Humidity 64%
Rainfall 0.00 in
Snow Depth Not available.
UV 1 out of 12
Pollen 11.10 out of 12
Air Quality Not available.
Flu Activity Not available.
METAR KBKN 012335Z AUTO 16014KT 6SM HZ FEW070 SCT085 34/22 A2973 RMK AO2

More Conditions Fewer Conditions

Pressure 29.73 in
Visibility 6.0 miles
Clouds Few 7000 ft
Scattered Clouds 8500 ft
Heat Index 94 °F
Dew Point 73 °F
Humidity 64%
Rainfall 0.00 in
Snow Depth Not available.
UV 1 out of 12
Pollen 11.10 out of 12
Air Quality Not available.
Flu Activity Not available.
METAR KBKN 012335Z AUTO 16014KT 6SM HZ FEW070 SCT085 34/22 A2973 RMK AO2

More Conditions Fewer Conditions

10-Day Weather Forecast

Almanac

Astronomy

Sep. 01, 2014 Rise Set
Actual Time 7:02 AM CDT 8:00 PM CDT
Civil Twilight 6:35 AM CDT 8:26 PM CDT
Nautical Twilight 6:04 AM CDT 8:58 PM CDT
Astronomical Twilight 5:31 AM CDT 9:30 PM CDT
Moon 1:39 PM CDT No Moon Set
Length of Visible Light 13h 50m
Length of Day
12h 57m
Tomorrow will be 2m 17s shorter.
Waxing Crescent, 45% of the Moon is Illuminated
Today
Waxing Crescent
Sep 2
First Quarter
Sep 8
Full
Sep 15
Last Quarter
Sep 24
New

Today's Extremes

State Highs State Lows

Community

WunderPhotos

Upload Photos

1,749,440 photos uploaded!

Nearby

Snow Depth

Station Depth Elevation
No new snow has been reported.

Earthquake Activity

City Distance Mag. Time & Date
Perry, Oklahoma 66 miles 3.1 6:46 AM CDT
2014-09-01
Jones, Oklahoma 107 miles 3.1 1:49 PM CDT
2014-08-31
Enid, Oklahoma 32 miles 3.4 11:57 AM CDT
2014-08-31
Enid, Oklahoma 33 miles 3.7 2:20 AM CDT
2014-08-31
Minimum magnitude displayed is 2.5.

Coastal Water Temperatures

Place Temperature
No Stations Reporting

Nearby Weather Stations